Aeroporto :
LOGIN :

Iscrizione | Disclaimer

   EN    FR    IT 

 










Sommario :    VFR   VFR Marginale   IFR   IFR Intensivo   IFR Molto Intensivo
Visibilità : 
Base nubi : 
>= 8 km
>= 3000ft
5 / 8 km
1000 / 3000 ft
1500m / 5 km
500 / 1000 ft
800 / 1500m
200 / 500 ft
< 800m
< 200 ft
Simboli :   Temporali  Nebbia  Neve Forte  Precipitazioni Forti  Vento > 20 kt
SIGMETs :   Varie  Temporali  Ghiacco  Turbolenza  Onda orograficha  Ceneri Vulcaniche







- Altitudine del aeroporto : 2220 ft


LOXZ - Zeltweg AB

ULTIMO METAR :
  • 191350Z 29007KT 20KM -SHRA FEW050TCU BKN050SC 14/10 Q1005 NOSIG

METARs OBSOLETI :
  • 191320Z 29007KT 10KM -SHRA FEW050TCU BKN050SC 13/11 Q1005 NOSIG
  • 191250Z 19005KT 10KM -SHRA FEW050TCU BKN060SC 14/10 Q1005 NOSIG
  • 191220Z 20009KT 20KM -SHRA FEW050TCU BKN060SC 14/10 Q1005 NOSIG
  • 191150Z VRB03KT 20KM FEW050TCU BKN060SC 16/08 Q1004 TEMPO -SHRA
  • 191120Z VRB02KT 20KM FEW050CU BKN060SC 16/08 Q1005 TEMPO -SHRA

TAF TAF LOXZ
Valido dal 19 a 12 ore il 19 a 21 ore UTC


191115Z 1912/1921 VRB03KT 9999 FEW050 SCT060
TEMPO 1912/1921 SHRA FEW040TCU BKN060
PROB30
TEMPO 1912/1921 VRB15KT -TSRA FEW030CB BKN040
Nessun NOTAM noto per questo aeroporto.



MetMap, La meteo Aeronautica in un colpo d'occhio ! - Copyright ORBIFLY Dicembre 2007 - Disclaimer

ORBIFLY MET'MAP TEAM :

Programmazione e sviluppo : Alexandra Zaïnal
Concezione e sviluppo : Baudouin d'Aumeries
Co-Programmazione e sviluppo : Marc-Olivier Méhu
Supporto tecnico e logistico : Manuel Goepfert
Aiuto per la traduzione : Arnaldo La Scala

Contatto : metmap@orbifly.com




FONTI E CREDITI :

   NOAA